Time;durP1;ratioP1;P1;durP2;ratioP2;P2;SDS_P1;SDS_P2;PMS_P1;PMS_P2;Temp;Humidity;BMP_temperature;BMP_pressure;BME280_temperature;BME280_humidity;BME280_pressure;Samples;Min_cycle;Max_cycle;Signal;HPM_P1;HPM_P2
2022/06/23 00:02:39;;;;;;;2.05;1.70;;;;;;;;;;10483782;28;20256;-72
2022/06/23 00:07:43;;;;;;;1.83;1.70;;;;;;;;;;10489592;28;20681;-72
2022/06/23 00:12:44;;;;;;;1.90;1.80;;;;;;;;;;10510663;28;20209;-72
2022/06/23 00:17:56;;;;;;;2.42;2.22;;;;;;;;;;10510980;28;20202;-72
2022/06/23 00:23:27;;;;;;;4.82;2.00;;;;;;;;;;10486886;28;20186;-72
2022/06/23 00:28:46;;;;;;;2.65;2.55;;;;;;;;;;10491699;28;20270;-72
2022/06/23 00:33:47;;;;;;;3.25;2.58;;;;;;;;;;10474698;28;20819;-72
2022/06/23 00:38:48;;;;;;;2.72;2.60;;;;;;;;;;10504480;28;20198;-71
2022/06/23 00:43:51;;;;;;;3.22;2.65;;;;;;;;;;10483441;28;20188;-72
2022/06/23 00:49:00;;;;;;;2.72;2.58;;;;;;;;;;10464569;28;20201;-72
2022/06/23 00:54:15;;;;;;;4.40;2.95;;;;;;;;;;10497046;28;20205;-71
2022/06/23 00:59:22;;;;;;;3.38;3.17;;;;;;;;;;10519609;28;20201;-72
2022/06/23 01:04:23;;;;;;;3.28;3.17;;;;;;;;;;10505000;28;20209;-72
2022/06/23 01:09:27;;;;;;;4.10;3.75;;;;;;;;;;10498309;28;20201;-72
2022/06/23 01:14:34;;;;;;;4.93;3.88;;;;;;;;;;10496833;28;20185;-72
2022/06/23 01:19:54;;;;;;;6.15;3.97;;;;;;;;;;10490206;28;20280;-72
2022/06/23 01:25:14;;;;;;;4.78;3.65;;;;;;;;;;10515818;28;20182;-72
2022/06/23 01:30:16;;;;;;;4.47;4.15;;;;;;;;;;10488412;28;20304;-72
2022/06/23 01:35:32;;;;;;;4.78;4.45;;;;;;;;;;10465409;28;20182;-72
2022/06/23 01:40:41;;;;;;;4.35;3.97;;;;;;;;;;10486430;28;20228;-72
2022/06/23 01:45:47;;;;;;;4.10;3.67;;;;;;;;;;10516693;28;21170;-72
2022/06/23 01:50:52;;;;;;;3.80;3.65;;;;;;;;;;10496233;28;20948;-72
2022/06/23 01:56:03;;;;;;;4.78;4.38;;;;;;;;;;10498809;28;20186;-72
2022/06/23 02:01:05;;;;;;;8.32;4.20;;;;;;;;;;10482601;28;20303;-72
2022/06/23 02:06:16;;;;;;;5.57;4.13;;;;;;;;;;10493658;28;20181;-72
2022/06/23 02:11:39;;;;;;;3.90;3.70;;;;;;;;;;10497275;28;20205;-72
2022/06/23 02:16:43;;;;;;;4.80;4.57;;;;;;;;;;10512071;28;20677;-72
2022/06/23 02:21:48;;;;;;;4.53;4.30;;;;;;;;;;10509636;28;20209;-72
2022/06/23 02:26:58;;;;;;;7.35;4.35;;;;;;;;;;10481369;28;20221;-72
2022/06/23 02:32:25;;;;;;;6.25;5.13;;;;;;;;;;10457506;28;20218;-72
2022/06/23 02:37:44;;;;;;;5.00;4.80;;;;;;;;;;10434139;28;20233;-72
2022/06/23 02:42:49;;;;;;;5.05;4.63;;;;;;;;;;10473669;28;20178;-72
2022/06/23 02:48:09;;;;;;;5.60;5.20;;;;;;;;;;10468108;28;20233;-72
2022/06/23 02:53:10;;;;;;;6.75;5.75;;;;;;;;;;10471427;28;20220;-72
2022/06/23 02:58:15;;;;;;;5.50;5.22;;;;;;;;;;10451229;28;20202;-72
2022/06/23 03:03:24;;;;;;;6.85;6.25;;;;;;;;;;10451370;28;20260;-72
2022/06/23 03:08:44;;;;;;;6.22;5.63;;;;;;;;;;10470465;28;20201;-72
2022/06/23 03:13:45;;;;;;;6.40;6.00;;;;;;;;;;10449332;28;20225;-72
2022/06/23 03:18:57;;;;;;;7.63;6.00;;;;;;;;;;10470706;28;20194;-72
2022/06/23 03:24:01;;;;;;;6.18;5.45;;;;;;;;;;10474173;28;20651;-72
2022/06/23 03:29:12;;;;;;;8.23;6.47;;;;;;;;;;10495316;28;20282;-72
2022/06/23 03:34:22;;;;;;;6.25;5.43;;;;;;;;;;10494359;28;20720;-72
2022/06/23 03:45:10;;;;;;;6.80;6.30;;;;;;;;;;10508229;28;20192;-72
2022/06/23 03:50:30;;;;;;;7.50;6.80;;;;;;;;;;10488094;28;20240;-72
2022/06/23 03:55:37;;;;;;;7.40;6.90;;;;;;;;;;10509276;28;20319;-72
2022/06/23 04:00:40;;;;;;;6.55;5.95;;;;;;;;;;10461778;28;20216;-71
2022/06/23 04:05:56;;;;;;;7.97;6.97;;;;;;;;;;10505870;28;20235;-72
2022/06/23 04:11:42;;;;;;;9.57;7.38;;;;;;;;;;10509323;28;20259;-71
2022/06/23 04:16:23;;;;;;;7.97;7.03;;;;;;;;;;10502424;28;20260;-71
2022/06/23 04:21:26;;;;;;;9.23;7.03;;;;;;;;;;10482884;28;20270;-71
2022/06/23 04:26:33;;;;;;;7.07;6.38;;;;;;;;;;10492015;28;20270;-71
2022/06/23 04:31:37;;;;;;;8.60;7.75;;;;;;;;;;10490011;28;20232;-71
2022/06/23 04:36:43;;;;;;;10.50;7.63;;;;;;;;;;10518016;28;20292;-71
2022/06/23 04:41:46;;;;;;;7.43;6.93;;;;;;;;;;10493989;28;20840;-71
2022/06/23 04:46:56;;;;;;;8.48;7.68;;;;;;;;;;10520216;28;20197;-72
2022/06/23 04:52:01;;;;;;;12.70;8.30;;;;;;;;;;10496962;28;20212;-71
2022/06/23 04:57:02;;;;;;;11.05;7.60;;;;;;;;;;10496152;28;21020;-72
2022/06/23 05:02:22;;;;;;;12.75;8.48;;;;;;;;;;10475681;28;20220;-72
2022/06/23 05:07:27;;;;;;;12.60;8.48;;;;;;;;;;10502875;28;20197;-72
2022/06/23 05:12:30;;;;;;;12.30;7.57;;;;;;;;;;10491835;28;20213;-72
2022/06/23 05:17:33;;;;;;;12.70;7.82;;;;;;;;;;10467052;28;21614;-72
2022/06/23 05:22:37;;;;;;;9.70;7.97;;;;;;;;;;10507931;28;20181;-72
2022/06/23 05:27:38;;;;;;;8.05;7.25;;;;;;;;;;10495602;28;20222;-72
2022/06/23 05:32:50;;;;;;;9.25;7.57;;;;;;;;;;10500914;28;20274;-73
2022/06/23 05:37:54;;;;;;;14.85;6.57;;;;;;;;;;10510155;28;20201;-72
2022/06/23 05:42:58;;;;;;;7.00;6.25;;;;;;;;;;10502056;28;20175;-72
2022/06/23 05:48:00;;;;;;;7.75;5.75;;;;;;;;;;10504035;28;20213;-73
2022/06/23 05:53:07;;;;;;;6.38;5.47;;;;;;;;;;10471980;28;20205;-72
2022/06/23 05:58:15;;;;;;;6.85;5.93;;;;;;;;;;10499979;28;20210;-71
2022/06/23 06:03:22;;;;;;;5.80;5.40;;;;;;;;;;10462110;28;20210;-73
2022/06/23 06:08:25;;;;;;;8.82;5.75;;;;;;;;;;10495241;28;20745;-71
2022/06/23 06:13:44;;;;;;;6.85;5.18;;;;;;;;;;10496345;28;20209;-72
2022/06/23 06:18:46;;;;;;;9.50;5.07;;;;;;;;;;10499915;28;20209;-71
2022/06/23 06:23:55;;;;;;;7.15;5.45;;;;;;;;;;10494687;28;20177;-72
2022/06/23 06:29:00;;;;;;;7.82;5.05;;;;;;;;;;10494998;28;20660;-72
2022/06/23 06:34:04;;;;;;;5.13;4.70;;;;;;;;;;10483696;28;20991;-71
2022/06/23 06:39:07;;;;;;;7.82;5.65;;;;;;;;;;10485934;28;20911;-71
2022/06/23 06:44:09;;;;;;;9.18;5.43;;;;;;;;;;10490586;28;20205;-72
2022/06/23 06:49:14;;;;;;;8.15;5.40;;;;;;;;;;10489171;28;20239;-72
2022/06/23 06:54:19;;;;;;;5.63;5.13;;;;;;;;;;10504324;28;20284;-71
2022/06/23 06:59:23;;;;;;;6.15;5.43;;;;;;;;;;10467321;28;20201;-71
2022/06/23 07:04:33;;;;;;;6.05;5.07;;;;;;;;;;10484100;28;20213;-72
2022/06/23 07:09:43;;;;;;;5.82;4.93;;;;;;;;;;10501427;28;20292;-72
2022/06/23 07:15:05;;;;;;;7.38;4.50;;;;;;;;;;10501075;28;20201;-73
2022/06/23 07:20:12;;;;;;;6.20;5.63;;;;;;;;;;10484334;28;20859;-72
2022/06/23 07:25:16;;;;;;;5.07;4.60;;;;;;;;;;10512948;28;20261;-72
2022/06/23 07:30:25;;;;;;;6.13;5.10;;;;;;;;;;10497013;28;20336;-72
2022/06/23 07:35:26;;;;;;;6.75;5.32;;;;;;;;;;10486782;28;20351;-72
2022/06/23 07:40:32;;;;;;;5.57;4.80;;;;;;;;;;10513104;28;20694;-72
2022/06/23 07:45:43;;;;;;;6.88;5.05;;;;;;;;;;10515230;28;20173;-72
2022/06/23 07:50:44;;;;;;;5.40;4.93;;;;;;;;;;10492102;28;20815;-72
2022/06/23 07:55:46;;;;;;;6.13;4.35;;;;;;;;;;10489137;28;20268;-72
2022/06/23 08:00:49;;;;;;;5.03;4.43;;;;;;;;;;10492872;28;20229;-73
2022/06/23 08:05:52;;;;;;;6.03;4.70;;;;;;;;;;10486684;28;20182;-72
2022/06/23 08:21:40;;;;;;;5.07;4.53;;;;;;;;;;10478592;28;20673;-72
2022/06/23 08:26:43;;;;;;;10.82;4.18;;;;;;;;;;10478813;28;21288;-73
2022/06/23 08:31:44;;;;;;;6.28;4.18;;;;;;;;;;10493042;28;20822;-72
2022/06/23 08:36:47;;;;;;;6.13;3.90;;;;;;;;;;10504540;28;20208;-73
2022/06/23 08:41:51;;;;;;;4.05;2.95;;;;;;;;;;10487235;28;20190;-73
2022/06/23 08:46:57;;;;;;;3.03;2.80;;;;;;;;;;10503963;28;20221;-72
2022/06/23 08:52:17;;;;;;;2.55;2.38;;;;;;;;;;10491955;28;20213;-73
2022/06/23 08:57:23;;;;;;;3.00;2.78;;;;;;;;;;10506638;28;20197;-73
2022/06/23 09:02:47;;;;;;;2.80;2.60;;;;;;;;;;10473687;28;20206;-73
2022/06/23 09:08:03;;;;;;;2.70;2.58;;;;;;;;;;10493031;28;20290;-73
2022/06/23 09:13:33;;;;;;;1.88;1.77;;;;;;;;;;10467679;28;20859;-72
2022/06/23 09:18:53;;;;;;;3.33;1.80;;;;;;;;;;10508175;28;20232;-73
2022/06/23 09:24:09;;;;;;;1.42;1.30;;;;;;;;;;10497748;28;20193;-73
2022/06/23 09:29:32;;;;;;;1.60;1.50;;;;;;;;;;10518102;28;20277;-73
2022/06/23 09:34:55;;;;;;;2.08;1.98;;;;;;;;;;10496902;28;20587;-73
2022/06/23 09:40:03;;;;;;;2.67;1.70;;;;;;;;;;10517219;28;20213;-73
2022/06/23 09:45:22;;;;;;;1.75;1.65;;;;;;;;;;10518423;28;20220;-73
2022/06/23 09:50:50;;;;;;;1.23;1.23;;;;;;;;;;10513186;28;20197;-72
2022/06/23 09:55:51;;;;;;;1.10;1.10;;;;;;;;;;10489951;28;20201;-73
2022/06/23 10:01:01;;;;;;;2.58;1.00;;;;;;;;;;10501333;28;20628;-73
2022/06/23 10:06:12;;;;;;;1.38;1.38;;;;;;;;;;10514973;28;20197;-73
2022/06/23 10:11:36;;;;;;;3.05;1.00;;;;;;;;;;10514368;28;21073;-73
2022/06/23 10:16:37;;;;;;;1.10;1.10;;;;;;;;;;10500424;28;20196;-72
2022/06/23 10:21:57;;;;;;;1.67;1.02;;;;;;;;;;10508258;28;20189;-74
2022/06/23 10:27:16;;;;;;;1.15;1.15;;;;;;;;;;10502373;28;20226;-73
2022/06/23 10:32:36;;;;;;;1.10;1.10;;;;;;;;;;10428182;28;20241;-73
2022/06/23 10:37:47;;;;;;;3.97;1.08;;;;;;;;;;10478118;28;20201;-73
2022/06/23 10:42:56;;;;;;;2.83;1.10;;;;;;;;;;10468451;28;20198;-72
2022/06/23 10:47:57;;;;;;;1.45;1.30;;;;;;;;;;10443933;28;20294;-74
2022/06/23 10:53:16;;;;;;;2.17;1.15;;;;;;;;;;10458297;28;20202;-74
2022/06/23 10:58:36;;;;;;;1.55;1.55;;;;;;;;;;10433770;28;20198;-73
2022/06/23 11:03:46;;;;;;;1.20;1.00;;;;;;;;;;10445209;28;20218;-74
2022/06/23 11:09:11;;;;;;;1.92;1.33;;;;;;;;;;10437273;28;20198;-72
2022/06/23 11:14:31;;;;;;;3.03;1.52;;;;;;;;;;10456883;28;20214;-73
2022/06/23 11:19:35;;;;;;;3.00;1.27;;;;;;;;;;10465952;28;20579;-73
2022/06/23 11:24:39;;;;;;;2.47;1.20;;;;;;;;;;10448225;28;20179;-73
2022/06/23 11:29:43;;;;;;;1.08;1.08;;;;;;;;;;10434371;28;20314;-75
2022/06/23 11:34:50;;;;;;;1.77;1.17;;;;;;;;;;10441836;28;20289;-76
2022/06/23 11:40:04;;;;;;;1.15;1.10;;;;;;;;;;10468201;28;20248;-73
2022/06/23 11:45:30;;;;;;;1.08;1.08;;;;;;;;;;10468638;28;20209;-75
2022/06/23 11:50:41;;;;;;;1.52;1.02;;;;;;;;;;10462456;28;20324;-73
2022/06/23 11:55:48;;;;;;;3.72;1.33;;;;;;;;;;10462130;28;20201;-73
2022/06/23 12:01:08;;;;;;;2.15;1.17;;;;;;;;;;10449344;28;20213;-73
2022/06/23 12:06:22;;;;;;;1.48;0.98;;;;;;;;;;10438002;28;20189;-73
2022/06/23 12:11:24;;;;;;;1.77;1.20;;;;;;;;;;10443237;28;20213;-72
2022/06/23 12:16:25;;;;;;;1.45;1.25;;;;;;;;;;10464193;28;20247;-73
2022/06/23 12:21:30;;;;;;;2.92;1.05;;;;;;;;;;10449758;28;20174;-73
2022/06/23 12:26:33;;;;;;;1.85;1.23;;;;;;;;;;10455441;28;20249;-73
2022/06/23 12:31:36;;;;;;;1.90;1.10;;;;;;;;;;10425503;28;20419;-73
2022/06/23 12:36:40;;;;;;;2.78;1.20;;;;;;;;;;10445027;28;20247;-74
2022/06/23 12:41:54;;;;;;;1.70;0.90;;;;;;;;;;10459470;28;20177;-74
2022/06/23 12:46:58;;;;;;;1.60;1.00;;;;;;;;;;10454698;28;20197;-73
2022/06/23 12:52:18;;;;;;;1.00;1.00;;;;;;;;;;10453925;28;20940;-73
2022/06/23 12:57:28;;;;;;;0.77;0.77;;;;;;;;;;10461466;28;20210;-73
2022/06/23 13:02:45;;;;;;;3.22;1.00;;;;;;;;;;10446252;28;21088;-73
2022/06/23 13:07:58;;;;;;;1.23;1.13;;;;;;;;;;10464788;28;20209;-73
2022/06/23 13:13:10;;;;;;;0.82;0.77;;;;;;;;;;10464274;28;20727;-75
2022/06/23 13:18:16;;;;;;;1.15;1.10;;;;;;;;;;10457793;28;21560;-73
2022/06/23 13:23:19;;;;;;;1.20;1.00;;;;;;;;;;10449470;28;20535;-73
2022/06/23 13:28:37;;;;;;;1.00;1.00;;;;;;;;;;10497213;28;20689;-73
2022/06/23 13:33:55;;;;;;;0.90;0.90;;;;;;;;;;10486974;28;20256;-73
2022/06/23 13:39:17;;;;;;;1.10;1.10;;;;;;;;;;10499397;28;20652;-73
2022/06/23 13:44:27;;;;;;;1.00;1.00;;;;;;;;;;10517390;28;20277;-73
2022/06/23 13:49:36;;;;;;;1.48;1.05;;;;;;;;;;10503673;28;20242;-73
2022/06/23 13:54:40;;;;;;;1.30;1.13;;;;;;;;;;10476819;28;20205;-75
2022/06/23 13:59:42;;;;;;;3.00;0.73;;;;;;;;;;10483159;28;20255;-75
2022/06/23 14:04:47;;;;;;;1.20;1.10;;;;;;;;;;10483078;28;20617;-74
2022/06/23 14:09:48;;;;;;;2.55;1.08;;;;;;;;;;10491038;28;20905;-74
2022/06/23 14:14:49;;;;;;;1.73;1.10;;;;;;;;;;10508705;28;20292;-75
2022/06/23 14:20:02;;;;;;;1.85;1.00;;;;;;;;;;10489422;28;20198;-74
2022/06/23 14:25:16;;;;;;;1.10;1.00;;;;;;;;;;10490461;28;20197;-74
2022/06/23 14:30:26;;;;;;;1.90;0.80;;;;;;;;;;10491880;28;20235;-75
2022/06/23 14:35:45;;;;;;;0.70;0.70;;;;;;;;;;10511029;28;20177;-74
2022/06/23 14:41:10;;;;;;;0.98;0.98;;;;;;;;;;10483889;28;20597;-75
2022/06/23 14:46:19;;;;;;;3.22;0.90;;;;;;;;;;10507338;28;20177;-74
2022/06/23 14:51:35;;;;;;;1.25;1.08;;;;;;;;;;10485778;28;20662;-74
2022/06/23 14:56:48;;;;;;;1.02;1.00;;;;;;;;;;10490149;28;20223;-75
2022/06/23 15:02:15;;;;;;;0.95;0.95;;;;;;;;;;10465778;28;20212;-74
2022/06/23 15:07:29;;;;;;;1.10;1.10;;;;;;;;;;10495160;28;20212;-74
2022/06/23 15:12:40;;;;;;;3.47;1.00;;;;;;;;;;10497935;28;20204;-74
2022/06/23 15:17:54;;;;;;;1.05;1.05;;;;;;;;;;10487631;28;20291;-75
2022/06/23 15:23:11;;;;;;;1.33;1.23;;;;;;;;;;10508246;28;20571;-74
2022/06/23 15:28:18;;;;;;;2.00;1.20;;;;;;;;;;10502303;28;20315;-74
2022/06/23 15:33:28;;;;;;;3.40;1.20;;;;;;;;;;10489524;28;20229;-75
2022/06/23 15:38:32;;;;;;;1.27;1.27;;;;;;;;;;10493481;28;20701;-73
2022/06/23 15:43:55;;;;;;;1.73;1.00;;;;;;;;;;10508341;28;20178;-74
2022/06/23 15:49:00;;;;;;;1.55;1.20;;;;;;;;;;10499282;28;20235;-73
2022/06/23 15:54:20;;;;;;;2.15;1.40;;;;;;;;;;10505522;28;20208;-74
2022/06/23 15:59:23;;;;;;;1.50;1.10;;;;;;;;;;10508191;28;20201;-73
2022/06/23 16:04:27;;;;;;;1.20;1.20;;;;;;;;;;10509148;28;20212;-73
2022/06/23 16:09:32;;;;;;;2.53;1.20;;;;;;;;;;10488296;28;22296;-73
2022/06/23 16:15:05;;;;;;;1.30;1.30;;;;;;;;;;10490878;28;20211;-73
2022/06/23 16:20:12;;;;;;;1.38;1.30;;;;;;;;;;10468438;28;20853;-73
2022/06/23 16:25:17;;;;;;;1.27;0.95;;;;;;;;;;10500718;28;20185;-74
2022/06/23 16:30:18;;;;;;;1.15;1.15;;;;;;;;;;10500337;28;20224;-73
2022/06/23 16:35:23;;;;;;;1.20;1.10;;;;;;;;;;10493401;28;20619;-73
2022/06/23 16:40:29;;;;;;;1.10;1.10;;;;;;;;;;10478177;28;20564;-73
2022/06/23 16:45:39;;;;;;;1.00;0.85;;;;;;;;;;10494148;28;20276;-73
2022/06/23 16:50:47;;;;;;;1.23;1.08;;;;;;;;;;10496759;28;20201;-73
2022/06/23 16:55:55;;;;;;;0.93;0.80;;;;;;;;;;10507154;28;20204;-73
2022/06/23 17:01:00;;;;;;;0.88;0.88;;;;;;;;;;10487023;28;20222;-73
2022/06/23 17:06:21;;;;;;;0.90;0.90;;;;;;;;;;10477969;28;20189;-72
2022/06/23 17:11:26;;;;;;;1.10;0.90;;;;;;;;;;10489703;28;20862;-73
2022/06/23 17:16:33;;;;;;;2.38;1.00;;;;;;;;;;10496810;28;20619;-73
2022/06/23 17:21:37;;;;;;;0.85;0.85;;;;;;;;;;10501903;28;20583;-72
2022/06/23 17:26:46;;;;;;;2.50;0.98;;;;;;;;;;10507862;28;20278;-73
2022/06/23 17:32:00;;;;;;;2.47;0.93;;;;;;;;;;10477288;28;20232;-73
2022/06/23 17:37:05;;;;;;;1.23;0.90;;;;;;;;;;10509148;28;20252;-73
2022/06/23 17:47:55;;;;;;;0.82;0.82;;;;;;;;;;10497660;28;20197;-73
2022/06/23 17:52:57;;;;;;;1.80;0.68;;;;;;;;;;10512029;28;20232;-73
2022/06/23 17:58:08;;;;;;;0.60;0.60;;;;;;;;;;10508188;28;20205;-73
2022/06/23 18:03:25;;;;;;;0.77;0.77;;;;;;;;;;10468824;28;20316;-73
2022/06/23 18:08:35;;;;;;;0.65;0.65;;;;;;;;;;10512937;28;20254;-73
2022/06/23 18:13:57;;;;;;;0.63;0.60;;;;;;;;;;10515410;28;20209;-73
2022/06/23 18:19:05;;;;;;;0.60;0.60;;;;;;;;;;10495967;28;20201;-73
2022/06/23 18:24:14;;;;;;;2.83;0.70;;;;;;;;;;10495714;28;20177;-72
2022/06/23 18:29:23;;;;;;;0.60;0.60;;;;;;;;;;10506834;28;20240;-72
2022/06/23 18:34:41;;;;;;;0.60;0.60;;;;;;;;;;10464489;28;20316;-72
2022/06/23 18:39:51;;;;;;;1.55;0.82;;;;;;;;;;10509114;28;20627;-72
2022/06/23 18:44:59;;;;;;;1.42;0.70;;;;;;;;;;10503114;28;20177;-72
2022/06/23 18:50:23;;;;;;;1.48;0.70;;;;;;;;;;10465905;28;21035;-72
2022/06/23 18:55:33;;;;;;;1.10;0.90;;;;;;;;;;10479377;28;20210;-72
2022/06/23 19:00:38;;;;;;;1.20;1.10;;;;;;;;;;10456684;28;21246;-72
2022/06/23 19:05:39;;;;;;;0.75;0.75;;;;;;;;;;10488776;28;20185;-72
2022/06/23 19:10:53;;;;;;;2.58;0.80;;;;;;;;;;10482041;28;20691;-72
2022/06/23 19:16:19;;;;;;;1.55;1.17;;;;;;;;;;10509000;28;20667;-72
2022/06/23 19:21:31;;;;;;;0.80;0.80;;;;;;;;;;10497010;28;20181;-72
2022/06/23 19:26:39;;;;;;;1.20;1.20;;;;;;;;;;10503390;28;20225;-72
2022/06/23 19:32:07;;;;;;;4.15;1.15;;;;;;;;;;10449527;28;21018;-72
2022/06/23 19:37:17;;;;;;;1.33;1.13;;;;;;;;;;10428642;28;20214;-72
2022/06/23 19:42:42;;;;;;;1.02;1.02;;;;;;;;;;10455609;28;20209;-72
2022/06/23 19:47:45;;;;;;;2.63;1.10;;;;;;;;;;10417745;28;20729;-72
2022/06/23 19:52:48;;;;;;;1.20;1.20;;;;;;;;;;10463559;28;20278;-72
2022/06/23 19:57:56;;;;;;;1.33;1.20;;;;;;;;;;10440644;28;20210;-72
2022/06/23 20:03:05;;;;;;;2.25;1.60;;;;;;;;;;10428663;28;20216;-72
2022/06/23 20:08:24;;;;;;;1.52;1.17;;;;;;;;;;10463871;28;20233;-71
2022/06/23 20:13:55;;;;;;;2.58;1.73;;;;;;;;;;10446397;28;20720;-71
2022/06/23 20:19:03;;;;;;;2.08;1.52;;;;;;;;;;10437305;28;20206;-73
2022/06/23 20:24:39;;;;;;;3.17;1.63;;;;;;;;;;10463359;28;21217;-73
2022/06/23 20:29:59;;;;;;;3.90;1.85;;;;;;;;;;10395679;28;20224;-73
2022/06/23 20:35:09;;;;;;;2.00;1.90;;;;;;;;;;10455415;28;20703;-74
2022/06/23 20:40:13;;;;;;;1.63;1.52;;;;;;;;;;10467647;28;20201;-71
2022/06/23 20:45:30;;;;;;;2.60;1.67;;;;;;;;;;10460853;28;21033;-71
2022/06/23 20:50:47;;;;;;;2.08;1.98;;;;;;;;;;10461646;28;20220;-71
2022/06/23 20:56:07;;;;;;;1.95;1.80;;;;;;;;;;10466428;28;20247;-71
2022/06/23 21:01:21;;;;;;;2.47;1.73;;;;;;;;;;10463955;28;20209;-71
2022/06/23 21:06:45;;;;;;;1.67;1.67;;;;;;;;;;10465525;28;20191;-71
2022/06/23 21:11:51;;;;;;;2.00;1.90;;;;;;;;;;10451789;28;20202;-71
2022/06/23 21:17:00;;;;;;;2.35;2.00;;;;;;;;;;10468238;28;20366;-71
2022/06/23 21:22:10;;;;;;;2.13;2.10;;;;;;;;;;10462316;28;20182;-70
2022/06/23 21:27:20;;;;;;;2.20;2.10;;;;;;;;;;10470721;28;20226;-71
2022/06/23 21:32:27;;;;;;;2.30;1.85;;;;;;;;;;10499065;28;20795;-71
2022/06/23 21:37:30;;;;;;;3.30;2.10;;;;;;;;;;10516101;28;20222;-71
2022/06/23 21:42:39;;;;;;;2.25;2.13;;;;;;;;;;10492495;28;20244;-72
2022/06/23 21:47:45;;;;;;;2.35;1.83;;;;;;;;;;10511102;28;20260;-70
2022/06/23 21:52:48;;;;;;;1.67;1.67;;;;;;;;;;10510022;28;20194;-71
2022/06/23 21:58:02;;;;;;;1.92;1.92;;;;;;;;;;10483744;28;20294;-71
2022/06/23 22:03:09;;;;;;;2.08;2.00;;;;;;;;;;10446851;28;20314;-70
2022/06/23 22:08:23;;;;;;;2.40;2.30;;;;;;;;;;10512103;28;21042;-71
2022/06/23 22:13:26;;;;;;;2.50;2.22;;;;;;;;;;10505009;28;20279;-70
2022/06/23 22:18:39;;;;;;;2.00;2.00;;;;;;;;;;10503751;28;20666;-71
2022/06/23 22:29:12;;;;;;;2.65;2.65;;;;;;;;;;10510776;28;20256;-70
2022/06/23 22:34:26;;;;;;;2.13;2.13;;;;;;;;;;10487971;28;20282;-70
2022/06/23 22:39:28;;;;;;;2.53;2.53;;;;;;;;;;10515719;28;20201;-71
2022/06/23 22:44:48;;;;;;;2.28;2.17;;;;;;;;;;10485590;28;20275;-70
2022/06/23 22:49:50;;;;;;;2.53;2.45;;;;;;;;;;10487300;28;20745;-73
2022/06/23 22:54:51;;;;;;;2.95;2.80;;;;;;;;;;10498169;28;20681;-71
2022/06/23 22:59:52;;;;;;;3.20;3.00;;;;;;;;;;10487019;28;20194;-69
2022/06/23 23:04:53;;;;;;;2.88;2.65;;;;;;;;;;10486534;28;20213;-70
2022/06/23 23:09:55;;;;;;;3.13;2.78;;;;;;;;;;10500948;28;20285;-71
2022/06/23 23:14:58;;;;;;;3.10;2.90;;;;;;;;;;10480917;28;20225;-70
2022/06/23 23:19:59;;;;;;;2.50;2.28;;;;;;;;;;10499305;28;20304;-71
2022/06/23 23:25:02;;;;;;;2.70;2.58;;;;;;;;;;10511600;28;20223;-70
2022/06/23 23:30:09;;;;;;;2.30;2.22;;;;;;;;;;10507601;28;20260;-71
2022/06/23 23:35:33;;;;;;;2.47;2.42;;;;;;;;;;10482047;28;20216;-70
2022/06/23 23:40:37;;;;;;;2.80;2.70;;;;;;;;;;10485521;28;20776;-70
2022/06/23 23:45:40;;;;;;;2.80;2.58;;;;;;;;;;10503453;28;20760;-70
2022/06/23 23:50:41;;;;;;;2.83;2.72;;;;;;;;;;10487077;28;20209;-70
2022/06/23 23:55:42;;;;;;;2.97;2.78;;;;;;;;;;10482542;28;20189;-73
